EDT,Max TemperatureF,Mean TemperatureF,Min TemperatureF,Max Dew PointF,MeanDew PointF,Min DewpointF,Max Humidity, Mean Humidity, Min Humidity, Max Sea Level PressureIn, Mean Sea Level PressureIn, Min Sea Level PressureIn, Max VisibilityMiles, Mean VisibilityMiles, Min VisibilityMiles, Max Wind SpeedMPH, Mean Wind SpeedMPH, Max Gust SpeedMPH,PrecipitationIn, CloudCover, Events, WindDirDegrees
2011-10-1,60,51,42,46,39,36,89,65,40,29.93,29.86,29.78,10,10,10,20,9,28,0.00,2,,297
2011-10-2,60,50,40,43,39,34,96,68,40,30.03,29.96,29.90,10,10,10,20,7,26,0.01,4,,280
2011-10-3,66,54,41,45,42,39,100,72,43,30.16,30.07,29.98,10,10,10,16,6,24,0.02,3,Rain,270
2011-10-4,72,56,39,49,45,39,100,72,44,30.25,30.19,30.13,10,10,7,13,5,17,0.00,1,,328
2011-10-5,77,61,44,54,48,44,100,67,33,30.27,30.22,30.17,10,10,6,8,1,12,0.00,0,,270
2011-10-6,73,60,46,54,49,46,100,73,46,30.39,30.32,30.25,10,10,9,13,3,21,0.00,0,,44
2011-10-7,74,58,41,52,48,41,100,71,41,30.45,30.40,30.36,10,8,4,9,1,13,0.00,0,,59
2011-10-8,73,57,41,52,47,41,100,71,41,30.52,30.47,30.42,10,9,4,12,2,16,0.00,0,,72
2011-10-9,74,61,47,52,49,44,93,64,35,30.46,30.39,30.32,10,10,10,13,4,22,0.00,0,,48
2011-10-10,76,64,51,58,53,50,100,73,46,30.32,30.21,30.12,10,10,10,14,5,20,0.00,0,,51
2011-10-11,65,62,59,59,58,55,100,89,78,30.11,30.04,29.95,10,7,2,18,7,23,0.29,8,Rain,49
2011-10-12,71,66,60,67,64,59,100,92,84,29.97,29.84,29.76,10,7,2,13,2,16,0.61,8,Rain,64
2011-10-13,76,68,60,67,65,61,100,84,68,29.75,29.67,29.56,10,6,0,17,3,29,0.08,7,Fog-Rain,181
2011-10-14,72,60,48,61,54,39,100,66,31,29.81,29.62,29.54,10,8,2,25,9,35,0.24,4,Rain-Thunderstorm,238
2011-10-15,71,57,42,46,41,35,100,64,28,30.01,29.91,29.84,10,10,10,21,8,28,0.00,0,,240
2011-10-16,76,58,39,47,41,37,92,60,27,30.12,30.01,29.88,10,10,10,17,7,24,0.00,0,,223
2011-10-17,79,65,51,61,52,47,100,69,37,29.90,29.85,29.80,10,10,9,20,4,24,0.00,0,,230
2011-10-18,82,67,51,63,56,51,100,68,36,29.85,29.78,29.70,10,8,2,13,4,20,0.54,2,Rain,208
2011-10-19,64,59,54,64,59,51,100,90,80,29.65,29.44,29.29,10,8,1,26,8,37,0.64,8,Rain,77
2011-10-20,59,51,43,52,41,37,96,72,47,29.91,29.67,29.43,10,10,10,25,12,35,0.00,3,,236
2011-10-21,63,51,38,44,40,38,100,71,42,30.12,30.03,29.92,10,10,10,10,3,,0.00,1,,236
2011-10-22,63,50,36,45,40,35,100,72,43,30.17,30.12,30.07,10,10,7,8,1,12,0.00,1,,329
2011-10-23,67,51,34,48,42,34,100,72,44,30.18,30.11,30.07,10,8,3,8,1,12,0.00,0,,226
2011-10-24,71,56,40,50,44,40,100,68,36,30.12,30.07,30.00,10,8,4,13,2,18,0.00,0,,240
2011-10-25,69,54,38,48,42,37,93,93,92,30.29,30.18,30.11,10,9,5,10,2,10,0.00,0,,254
2011-10-26,75,58,41,50,46,39,96,67,38,30.12,29.99,29.86,10,10,6,16,4,17,0.00,0,,214
2011-10-27,77,63,48,53,49,42,89,65,41,29.94,29.80,29.70,10,10,10,21,10,28,T,2,,238
2011-10-28,58,49,39,41,38,31,100,76,51,30.19,30.12,29.96,10,6,2,18,10,23,0.25,8,Rain,45
2011-10-29,53,43,32,40,35,27,100,71,42,30.12,29.99,29.94,10,8,3,22,9,31,0.77,6,Rain,350
2011-10-30,57,42,27,36,31,27,100,69,38,30.35,30.26,30.12,10,10,7,8,2,14,0.00,0,,149
2011-10-31,57,43,29,38,32,26,100,69,38,30.35,30.28,30.20,10,10,10,7,1,,0.00,1,,55